Time;durP1;ratioP1;P1;durP2;ratioP2;P2;SDS_P1;SDS_P2;PMS_P1;PMS_P2;Temp;Humidity;BMP_temperature;BMP_pressure;BME280_temperature;BME280_humidity;BME280_pressure;Samples;Min_cycle;Max_cycle;Signal;HPM_P1;HPM_P2
2020/12/17 00:01:25;;;;;;;5.05;3.10;;;9.60;99.90;;;;;;5009482;28;20556;-26
2020/12/17 00:03:56;;;;;;;325.52;52.65;;;9.70;99.90;;;;;;5009171;28;20231;-26
2020/12/17 00:06:39;;;;;;;7.32;3.42;;;9.60;99.90;;;;;;4994693;28;20226;-27
2020/12/17 00:09:09;;;;;;;5.88;4.20;;;9.70;99.90;;;;;;5010681;28;20194;-26
2020/12/17 00:11:39;;;;;;;6.07;3.80;;;9.70;99.90;;;;;;5008601;28;20699;-27
2020/12/17 00:14:10;;;;;;;4.32;3.58;;;9.60;99.90;;;;;;5009316;28;20674;-26
2020/12/17 00:16:41;;;;;;;4.88;3.35;;;9.60;99.90;;;;;;5008299;28;20187;-26
2020/12/17 00:19:13;;;;;;;5.38;3.70;;;9.60;99.90;;;;;;5007995;28;20299;-26
2020/12/17 00:21:43;;;;;;;6.93;5.28;;;9.60;99.90;;;;;;5007900;28;20599;-27
2020/12/17 00:24:13;;;;;;;5.22;3.78;;;9.60;99.90;;;;;;5008740;28;20361;-26
2020/12/17 00:26:44;;;;;;;5.43;4.28;;;9.60;99.90;;;;;;5008263;28;20199;-26
2020/12/17 00:29:14;;;;;;;4.43;4.03;;;9.60;99.90;;;;;;5007296;28;20214;-26
2020/12/17 00:31:44;;;;;;;6.30;3.80;;;9.60;99.90;;;;;;4998162;28;20591;-26
2020/12/17 00:34:16;;;;;;;4.97;3.95;;;9.70;99.90;;;;;;5005289;28;20223;-26
2020/12/17 00:36:54;;;;;;;7.03;5.25;;;9.60;99.90;;;;;;5006525;28;20295;-27
2020/12/17 00:39:24;;;;;;;6.22;4.82;;;9.60;99.90;;;;;;5009214;28;20194;-26
2020/12/17 00:41:55;;;;;;;5.85;5.15;;;9.60;99.90;;;;;;5009237;28;20202;-26
2020/12/17 00:44:25;;;;;;;5.38;4.88;;;9.70;99.90;;;;;;5009248;28;20555;-26
2020/12/17 00:46:55;;;;;;;6.47;5.18;;;9.60;99.90;;;;;;5009677;28;20200;-26
2020/12/17 00:49:26;;;;;;;7.80;5.07;;;9.60;99.90;;;;;;5009329;28;20213;-26
2020/12/17 00:52:01;;;;;;;8.00;5.20;;;9.50;99.90;;;;;;5009063;28;20562;-25
2020/12/17 00:54:31;;;;;;;9.05;6.10;;;9.50;99.90;;;;;;4999871;28;20195;-26
2020/12/17 00:57:01;;;;;;;6.13;5.10;;;9.50;99.90;;;;;;5009343;28;20207;-26
2020/12/17 00:59:31;;;;;;;7.90;5.10;;;9.40;99.90;;;;;;5009285;28;20302;-26
2020/12/17 01:02:01;;;;;;;6.00;5.40;;;9.40;99.90;;;;;;5009518;28;20204;-25
2020/12/17 01:04:33;;;;;;;8.30;5.60;;;9.40;99.90;;;;;;5008017;28;20234;-25
2020/12/17 01:07:05;;;;;;;6.32;5.28;;;9.50;99.90;;;;;;4996776;28;20617;-26
2020/12/17 01:09:36;;;;;;;5.22;4.35;;;9.50;99.90;;;;;;5008938;28;20626;-26
2020/12/17 01:12:07;;;;;;;65.53;17.55;;;9.50;99.90;;;;;;5007633;28;20195;-26
2020/12/17 01:14:37;;;;;;;110.07;22.63;;;9.50;99.90;;;;;;5008792;28;20184;-26
2020/12/17 01:17:09;;;;;;;5.03;4.63;;;9.60;99.90;;;;;;5008097;28;20195;-26
2020/12/17 01:19:40;;;;;;;5.15;4.75;;;9.50;99.90;;;;;;5008318;28;20214;-26
2020/12/17 01:22:10;;;;;;;4.95;4.45;;;9.50;99.90;;;;;;5010678;28;20191;-26
2020/12/17 01:24:40;;;;;;;7.00;4.63;;;9.50;99.90;;;;;;5011653;28;20349;-26
2020/12/17 01:27:10;;;;;;;6.20;4.22;;;9.50;99.90;;;;;;5011866;28;20692;-26
2020/12/17 01:29:40;;;;;;;5.70;5.05;;;9.50;99.90;;;;;;5012399;28;20671;-26
2020/12/17 01:32:10;;;;;;;7.30;5.80;;;9.50;99.90;;;;;;5012041;28;20659;-25
2020/12/17 01:34:42;;;;;;;7.55;5.65;;;9.50;99.90;;;;;;5000656;28;20202;-24
2020/12/17 01:37:27;;;;;;;7.03;6.32;;;9.50;99.90;;;;;;5008248;28;20187;-25
2020/12/17 01:39:57;;;;;;;10.18;6.82;;;9.60;99.90;;;;;;5011958;28;20209;-25
2020/12/17 01:42:28;;;;;;;9.70;7.78;;;9.70;99.90;;;;;;5011932;28;20643;-25
2020/12/17 01:44:58;;;;;;;8.43;7.63;;;9.70;99.90;;;;;;5011961;28;20541;-25
2020/12/17 01:47:38;;;;;;;10.32;7.35;;;9.70;99.90;;;;;;5011936;28;20299;-24
2020/12/17 01:50:10;;;;;;;8.98;7.13;;;9.70;99.90;;;;;;5011077;28;20631;-25
2020/12/17 01:52:40;;;;;;;9.43;7.90;;;9.70;99.90;;;;;;5012298;28;20290;-26
2020/12/17 01:55:10;;;;;;;11.13;10.02;;;9.70;99.90;;;;;;5011530;28;20204;-25
2020/12/17 01:57:45;;;;;;;15.05;13.65;;;9.80;99.90;;;;;;5016670;28;20250;-25
2020/12/17 02:00:20;;;;;;;12.60;11.30;;;9.80;99.90;;;;;;5011709;28;20199;-25
2020/12/17 02:02:54;;;;;;;37.80;14.38;;;9.90;99.90;;;;;;5012036;28;20192;-25
2020/12/17 02:05:25;;;;;;;156.60;31.90;;;10.00;99.90;;;;;;5010968;28;20578;-25
2020/12/17 02:07:56;;;;;;;6.93;6.30;;;10.00;99.90;;;;;;5018241;28;20196;-25
2020/12/17 02:10:26;;;;;;;10.85;8.13;;;10.10;99.90;;;;;;5010571;28;20305;-24
2020/12/17 02:12:56;;;;;;;10.02;8.30;;;10.10;99.90;;;;;;5010949;28;20606;-24
2020/12/17 02:15:27;;;;;;;7.55;6.85;;;10.10;99.90;;;;;;5007873;28;20718;-26
2020/12/17 02:17:57;;;;;;;7.95;6.60;;;10.20;99.90;;;;;;5012171;28;20295;-25
2020/12/17 02:20:29;;;;;;;6.50;5.90;;;10.10;99.90;;;;;;5011278;28;20230;-25
2020/12/17 02:22:59;;;;;;;7.20;6.50;;;10.20;99.90;;;;;;5008282;28;20207;-26
2020/12/17 02:25:30;;;;;;;5.63;5.13;;;10.20;99.90;;;;;;5010662;28;20215;-25
2020/12/17 02:28:00;;;;;;;6.18;4.57;;;10.30;99.90;;;;;;5011573;28;20281;-25
2020/12/17 02:30:30;;;;;;;3.88;3.58;;;10.30;99.90;;;;;;5009675;28;20196;-24
2020/12/17 02:33:00;;;;;;;3.00;2.80;;;10.40;99.90;;;;;;5010771;28;20199;-24
2020/12/17 02:35:31;;;;;;;2.40;2.30;;;10.40;99.90;;;;;;5004623;28;20208;-25
2020/12/17 02:38:01;;;;;;;3.85;2.83;;;10.50;99.90;;;;;;5011302;28;20615;-25
2020/12/17 02:40:32;;;;;;;2.60;2.40;;;10.50;99.90;;;;;;5010831;28;20196;-25
2020/12/17 02:43:03;;;;;;;1.90;1.80;;;10.50;99.90;;;;;;5011245;28;20590;-24
2020/12/17 02:45:33;;;;;;;2.42;2.22;;;10.60;99.90;;;;;;5011007;28;20349;-24
2020/12/17 02:48:03;;;;;;;2.10;1.95;;;10.60;99.90;;;;;;5011028;28;20582;-24
2020/12/17 02:50:33;;;;;;;2.50;2.13;;;10.50;99.90;;;;;;5011108;28;20196;-24
2020/12/17 02:53:03;;;;;;;4.55;2.15;;;10.60;99.90;;;;;;5010878;28;20202;-24
2020/12/17 02:55:35;;;;;;;7.22;2.95;;;10.60;99.90;;;;;;5010379;28;20207;-24
2020/12/17 02:58:05;;;;;;;2.75;2.55;;;10.50;99.90;;;;;;5009612;28;20298;-25
2020/12/17 03:00:35;;;;;;;2.97;2.65;;;10.50;99.90;;;;;;5011101;28;20192;-25
2020/12/17 03:03:05;;;;;;;2.65;2.40;;;10.50;99.90;;;;;;5011063;28;20218;-24
2020/12/17 03:05:36;;;;;;;2.95;2.75;;;10.50;99.90;;;;;;5010717;28;20240;-26
2020/12/17 03:08:18;;;;;;;2.47;2.33;;;10.40;99.90;;;;;;5011608;28;20523;-26
2020/12/17 03:10:49;;;;;;;2.33;2.20;;;10.40;99.90;;;;;;5010570;28;20261;-25
2020/12/17 03:13:20;;;;;;;2.50;2.30;;;10.40;99.90;;;;;;5008625;28;20195;-25
2020/12/17 03:15:50;;;;;;;2.22;2.10;;;10.40;99.90;;;;;;5011481;28;20247;-25
2020/12/17 03:18:21;;;;;;;2.30;2.10;;;10.40;99.90;;;;;;5011227;28;20200;-25
2020/12/17 03:20:51;;;;;;;2.95;2.55;;;10.40;99.90;;;;;;5010247;28;20211;-25
2020/12/17 03:23:21;;;;;;;2.58;2.38;;;10.40;99.90;;;;;;4999975;28;20279;-25
2020/12/17 03:25:53;;;;;;;2.00;1.90;;;10.40;99.90;;;;;;5008674;28;20220;-25
2020/12/17 03:28:23;;;;;;;2.85;2.08;;;10.40;99.90;;;;;;5002816;28;20192;-25
2020/12/17 03:30:54;;;;;;;3.15;2.95;;;10.40;99.90;;;;;;5008438;28;20599;-25
2020/12/17 03:33:24;;;;;;;2.97;2.70;;;10.30;99.90;;;;;;5009693;28;20195;-25
2020/12/17 03:35:54;;;;;;;3.00;2.80;;;10.30;99.90;;;;;;5010335;28;20253;-25
2020/12/17 03:38:42;;;;;;;2.92;2.72;;;10.30;99.90;;;;;;5010341;28;20215;-25
2020/12/17 03:41:13;;;;;;;3.40;2.35;;;10.30;99.90;;;;;;5009746;28;20261;-25
2020/12/17 03:43:45;;;;;;;3.50;2.58;;;10.30;99.90;;;;;;5010455;28;20199;-25
2020/12/17 03:46:16;;;;;;;2.50;2.30;;;10.30;99.90;;;;;;5010032;28;20203;-25
2020/12/17 03:48:46;;;;;;;2.40;2.20;;;10.20;99.90;;;;;;5024470;28;20203;-25
2020/12/17 03:51:16;;;;;;;2.22;1.95;;;10.20;99.90;;;;;;5009897;28;20191;-25
2020/12/17 03:53:46;;;;;;;2.40;2.20;;;10.10;99.90;;;;;;5005340;28;20208;-25
2020/12/17 03:56:18;;;;;;;2.67;2.28;;;10.10;99.90;;;;;;5009077;28;20203;-25
2020/12/17 03:58:48;;;;;;;3.70;2.78;;;10.10;99.90;;;;;;5010113;28;20187;-26
2020/12/17 04:01:19;;;;;;;2.20;2.00;;;10.20;99.90;;;;;;5009449;28;20239;-26
2020/12/17 04:03:49;;;;;;;6.25;2.45;;;10.20;99.90;;;;;;5010338;28;20202;-25
2020/12/17 04:06:20;;;;;;;2.30;2.10;;;10.10;99.90;;;;;;5009249;28;20660;-26
2020/12/17 04:09:00;;;;;;;5.95;2.25;;;10.20;99.90;;;;;;5010148;28;20207;-26
2020/12/17 04:11:31;;;;;;;5.45;1.67;;;10.20;99.90;;;;;;5009559;28;20863;-26
2020/12/17 04:14:01;;;;;;;3.55;1.90;;;10.20;99.90;;;;;;5009334;28;20200;-24
2020/12/17 04:16:31;;;;;;;4.10;2.00;;;10.20;99.90;;;;;;4994331;28;20207;-26
2020/12/17 04:19:01;;;;;;;2.38;1.60;;;10.20;99.90;;;;;;5009041;28;20203;-26
2020/12/17 04:21:31;;;;;;;3.25;1.67;;;10.20;99.90;;;;;;5009218;28;20231;-26
2020/12/17 04:24:01;;;;;;;3.08;1.30;;;10.20;99.90;;;;;;5009209;28;20203;-25
2020/12/17 04:26:33;;;;;;;2.15;1.65;;;10.10;99.90;;;;;;5009090;28;20208;-26
2020/12/17 04:29:03;;;;;;;2.25;1.58;;;10.10;99.90;;;;;;5007500;28;20198;-26
2020/12/17 04:31:33;;;;;;;5.60;1.67;;;10.10;99.90;;;;;;5009355;28;20278;-26
2020/12/17 04:34:03;;;;;;;6.82;1.95;;;10.10;99.90;;;;;;5010707;28;20277;-26
2020/12/17 04:36:34;;;;;;;3.35;1.38;;;10.10;99.90;;;;;;5009108;28;20644;-25
2020/12/17 04:39:18;;;;;;;5.55;2.05;;;10.20;99.90;;;;;;5009240;28;20188;-26
2020/12/17 04:41:52;;;;;;;8.93;2.40;;;10.10;99.90;;;;;;5009427;28;20196;-25
2020/12/17 04:44:22;;;;;;;6.43;1.92;;;10.10;99.90;;;;;;5009260;28;20215;-26
2020/12/17 04:46:57;;;;;;;4.28;1.58;;;10.10;99.90;;;;;;5009550;28;20506;-26
2020/12/17 04:49:35;;;;;;;6.55;2.35;;;10.00;99.90;;;;;;5009204;28;20187;-26
2020/12/17 04:52:07;;;;;;;3.63;1.70;;;10.00;99.90;;;;;;5008021;28;20571;-26
2020/12/17 04:54:38;;;;;;;3.35;1.70;;;10.00;99.90;;;;;;5008997;28;20570;-26
2020/12/17 04:57:10;;;;;;;4.82;1.15;;;10.00;99.90;;;;;;5011069;28;20206;-26
2020/12/17 04:59:43;;;;;;;6.32;1.90;;;10.00;99.90;;;;;;5013548;28;20187;-26
2020/12/17 05:02:15;;;;;;;5.70;2.10;;;9.90;99.90;;;;;;5012578;28;20203;-26
2020/12/17 05:04:46;;;;;;;2.83;1.40;;;9.90;99.90;;;;;;5012638;28;20231;-26
2020/12/17 05:07:18;;;;;;;3.72;1.90;;;10.00;99.90;;;;;;5013069;28;20191;-26
2020/12/17 05:09:49;;;;;;;4.57;2.10;;;10.00;99.90;;;;;;5012066;28;20231;-25
2020/12/17 05:12:21;;;;;;;4.90;2.17;;;10.00;99.90;;;;;;5012247;28;20184;-26
2020/12/17 05:14:51;;;;;;;5.70;2.25;;;10.00;99.90;;;;;;5012952;28;20203;-26
2020/12/17 05:17:21;;;;;;;5.72;1.63;;;10.00;99.90;;;;;;5004100;28;20196;-25
2020/12/17 05:19:52;;;;;;;4.22;2.00;;;10.00;99.90;;;;;;5005061;28;20202;-26
2020/12/17 05:22:23;;;;;;;10.18;2.33;;;9.90;99.90;;;;;;5011891;28;20600;-25
2020/12/17 05:24:54;;;;;;;4.88;1.85;;;9.90;99.90;;;;;;5011332;28;20223;-26
2020/12/17 05:27:25;;;;;;;11.18;2.47;;;9.90;99.90;;;;;;5011369;28;20199;-26
2020/12/17 05:29:58;;;;;;;6.55;2.53;;;9.90;99.90;;;;;;5007071;28;20593;-26
2020/12/17 05:32:29;;;;;;;4.72;1.75;;;9.90;99.90;;;;;;5005868;28;20738;-25
2020/12/17 05:35:01;;;;;;;7.90;2.65;;;9.80;99.90;;;;;;5011615;28;20203;-26
2020/12/17 05:37:32;;;;;;;3.70;2.50;;;9.80;99.90;;;;;;5011960;28;20202;-25
2020/12/17 05:40:03;;;;;;;6.43;2.78;;;9.80;99.90;;;;;;5008125;28;20200;-25
2020/12/17 05:42:36;;;;;;;8.48;2.72;;;9.80;99.90;;;;;;5000179;28;20632;-26
2020/12/17 05:45:25;;;;;;;5.95;2.00;;;9.80;99.90;;;;;;5011463;28;20710;-26
2020/12/17 05:48:14;;;;;;;5.82;2.10;;;9.80;99.90;;;;;;5008161;28;20196;-26
2020/12/17 05:50:57;;;;;;;5.32;2.10;;;9.80;99.90;;;;;;5004075;28;20203;-25
2020/12/17 05:53:30;;;;;;;6.10;2.03;;;9.80;99.90;;;;;;5007827;28;20298;-25
2020/12/17 05:56:05;;;;;;;4.13;2.38;;;9.80;99.90;;;;;;5004506;28;20188;-26
2020/12/17 05:58:41;;;;;;;8.10;2.42;;;9.70;99.90;;;;;;5007693;28;20679;-26
2020/12/17 06:01:13;;;;;;;6.75;2.50;;;9.70;99.90;;;;;;5011101;28;20509;-26
2020/12/17 06:03:44;;;;;;;4.75;2.47;;;9.70;99.90;;;;;;5008752;28;20667;-26
2020/12/17 06:06:15;;;;;;;6.60;3.35;;;9.60;99.90;;;;;;5009890;28;20234;-26
2020/12/17 06:08:51;;;;;;;4.38;2.83;;;9.60;99.90;;;;;;5010316;28;20210;-25
2020/12/17 06:11:24;;;;;;;6.50;2.17;;;9.60;99.90;;;;;;5010999;28;20706;-25
2020/12/17 06:13:57;;;;;;;5.20;2.80;;;9.60;99.90;;;;;;5011805;28;20671;-26
2020/12/17 06:16:28;;;;;;;7.72;2.95;;;9.60;99.90;;;;;;5011396;28;20537;-26
2020/12/17 06:19:00;;;;;;;4.07;1.75;;;9.50;99.90;;;;;;5011794;28;20635;-25
2020/12/17 06:21:30;;;;;;;5.15;2.90;;;9.50;99.90;;;;;;5006958;28;20242;-25
2020/12/17 06:24:01;;;;;;;5.25;1.83;;;9.50;99.90;;;;;;5007267;28;20222;-25
2020/12/17 06:26:39;;;;;;;5.40;2.20;;;9.50;99.90;;;;;;5010710;28;20245;-25
2020/12/17 06:29:19;;;;;;;8.27;2.60;;;9.40;99.90;;;;;;5010151;28;20572;-25
2020/12/17 06:31:56;;;;;;;12.25;2.50;;;9.40;99.90;;;;;;5011927;28;20226;-25
2020/12/17 06:34:38;;;;;;;4.93;1.80;;;9.50;99.90;;;;;;5011258;28;20226;-24
2020/12/17 06:37:12;;;;;;;4.10;1.80;;;9.50;99.90;;;;;;5011104;28;20199;-25
2020/12/17 06:39:49;;;;;;;6.20;1.70;;;9.50;99.90;;;;;;5003754;28;20681;-25
2020/12/17 06:42:36;;;;;;;4.05;2.22;;;9.60;99.90;;;;;;5010326;28;20570;-25
2020/12/17 06:45:25;;;;;;;5.20;2.22;;;9.60;99.90;;;;;;5008886;28;20633;-25
2020/12/17 06:47:55;;;;;;;7.05;2.15;;;9.60;99.90;;;;;;4999119;28;20200;-25
2020/12/17 06:50:29;;;;;;;3.03;1.52;;;9.70;99.90;;;;;;4996553;28;20200;-24
2020/12/17 06:53:11;;;;;;;8.10;2.55;;;9.70;99.90;;;;;;5006991;28;20245;-25
2020/12/17 06:55:46;;;;;;;7.03;1.90;;;9.70;99.90;;;;;;5005620;28;20192;-25
2020/12/17 06:58:21;;;;;;;6.00;2.15;;;9.60;99.90;;;;;;5002483;28;20268;-25
2020/12/17 07:00:54;;;;;;;6.65;2.53;;;9.60;99.90;;;;;;5004742;28;20257;-25
2020/12/17 07:03:58;;;;;;;7.22;2.13;;;9.60;99.90;;;;;;5009156;28;20195;-25
2020/12/17 07:06:30;;;;;;;8.55;2.05;;;9.40;99.90;;;;;;4949123;29;20336;-25
2020/12/17 07:09:01;;;;;;;4.57;1.90;;;9.30;99.90;;;;;;4948937;29;20280;-25
2020/12/17 07:11:42;;;;;;;4.45;2.78;;;9.30;99.90;;;;;;4981248;28;20698;-25
2020/12/17 07:14:19;;;;;;;10.07;1.95;;;9.20;99.90;;;;;;5011159;28;20195;-25
2020/12/17 07:16:55;;;;;;;2.85;1.73;;;9.10;99.90;;;;;;5010815;28;20194;-25
2020/12/17 07:19:27;;;;;;;5.68;2.28;;;9.00;99.90;;;;;;5008817;28;20196;-25
2020/12/17 07:22:07;;;;;;;10.40;2.35;;;9.00;99.90;;;;;;5008775;28;20191;-25
2020/12/17 07:24:39;;;;;;;5.05;1.85;;;9.00;99.90;;;;;;5000557;28;20188;-25
2020/12/17 07:27:11;;;;;;;4.97;2.50;;;9.00;99.90;;;;;;5005684;28;20204;-25
2020/12/17 07:29:46;;;;;;;6.32;2.22;;;8.90;99.90;;;;;;5010737;28;20291;-25
2020/12/17 07:32:33;;;;;;;4.85;2.80;;;9.00;99.90;;;;;;5005821;28;20195;-25
2020/12/17 07:35:18;;;;;;;4.50;1.83;;;9.00;99.90;;;;;;5009778;28;20281;-25
2020/12/17 07:37:51;;;;;;;6.25;2.33;;;9.00;99.90;;;;;;5004636;28;20213;-24
2020/12/17 07:40:31;;;;;;;4.30;1.42;;;9.00;99.90;;;;;;5009818;28;20333;-24
2020/12/17 07:43:12;;;;;;;6.30;2.63;;;8.90;99.90;;;;;;5009312;28;20290;-24
2020/12/17 07:45:45;;;;;;;5.45;2.20;;;8.80;99.90;;;;;;5009238;28;20211;-24
2020/12/17 07:48:54;;;;;;;2.53;1.58;;;8.80;99.90;;;;;;5009677;28;20282;-24
2020/12/17 07:51:37;;;;;;;4.63;1.98;;;8.90;99.90;;;;;;5009365;28;20245;-25
2020/12/17 07:54:07;;;;;;;5.05;1.70;;;8.90;99.90;;;;;;5007430;28;20192;-24
2020/12/17 07:56:38;;;;;;;4.90;1.88;;;8.80;99.90;;;;;;5007708;28;20263;-25
2020/12/17 07:59:08;;;;;;;3.25;2.47;;;8.80;99.90;;;;;;5009442;28;20202;-24
2020/12/17 08:01:38;;;;;;;5.90;2.10;;;8.80;99.90;;;;;;4999727;28;20259;-24
2020/12/17 08:04:08;;;;;;;5.15;1.80;;;8.70;99.90;;;;;;4993762;28;20250;-24
2020/12/17 08:06:39;;;;;;;6.75;2.20;;;8.70;99.90;;;;;;5009268;28;20234;-24
2020/12/17 08:09:09;;;;;;;4.60;1.73;;;8.80;99.90;;;;;;5008832;28;20203;-25
2020/12/17 08:11:55;;;;;;;4.72;1.80;;;8.80;99.90;;;;;;5008877;28;20737;-25
2020/12/17 08:14:26;;;;;;;2.88;1.88;;;8.80;99.90;;;;;;5004785;28;20718;-25
2020/12/17 08:17:06;;;;;;;3.50;2.35;;;8.80;99.90;;;;;;5009988;28;20220;-25
2020/12/17 08:19:37;;;;;;;2.78;2.25;;;8.80;99.90;;;;;;5008912;28;20195;-25
2020/12/17 08:22:11;;;;;;;3.83;1.65;;;8.80;99.90;;;;;;5009406;28;20215;-26
2020/12/17 08:24:41;;;;;;;4.53;1.70;;;8.70;99.90;;;;;;5008428;28;20195;-25
2020/12/17 08:27:11;;;;;;;4.25;1.50;;;8.60;99.90;;;;;;5007963;28;20199;-26
2020/12/17 08:29:41;;;;;;;4.13;1.73;;;8.50;99.90;;;;;;5009292;28;20605;-26
2020/12/17 08:32:11;;;;;;;2.03;1.40;;;8.50;99.90;;;;;;5011294;28;20206;-26
2020/12/17 08:34:54;;;;;;;3.75;1.55;;;8.50;99.90;;;;;;5004740;28;20207;-26
2020/12/17 08:37:26;;;;;;;3.25;1.63;;;8.40;99.90;;;;;;5003087;28;20195;-25
2020/12/17 08:40:01;;;;;;;3.75;1.92;;;8.40;99.90;;;;;;5013306;28;20300;-25
2020/12/17 08:42:34;;;;;;;4.20;1.67;;;8.40;99.90;;;;;;5013192;28;20195;-24
2020/12/17 08:45:07;;;;;;;3.60;1.55;;;8.40;99.90;;;;;;5002817;28;20215;-25
2020/12/17 08:47:42;;;;;;;3.70;1.90;;;8.60;99.90;;;;;;5013657;28;20187;-25
2020/12/17 08:50:12;;;;;;;4.43;2.25;;;8.60;99.90;;;;;;5008133;28;20270;-24
2020/12/17 08:52:44;;;;;;;4.40;1.95;;;8.60;99.90;;;;;;5003884;28;20245;-25
2020/12/17 08:55:14;;;;;;;2.65;1.80;;;8.60;99.90;;;;;;5007983;28;20265;-24
2020/12/17 08:57:45;;;;;;;4.32;2.08;;;8.50;99.90;;;;;;5005625;28;20544;-25
2020/12/17 09:00:18;;;;;;;5.25;1.80;;;8.50;99.90;;;;;;5006486;28;20562;-25
2020/12/17 09:02:48;;;;;;;1.80;1.58;;;8.50;99.90;;;;;;4999299;28;20763;-25
2020/12/17 09:05:19;;;;;;;3.47;1.58;;;8.60;99.90;;;;;;5012231;28;20234;-25
2020/12/17 09:07:54;;;;;;;10.73;2.78;;;8.60;99.90;;;;;;5012351;28;20246;-25
2020/12/17 09:10:24;;;;;;;3.95;1.88;;;8.60;99.90;;;;;;5010563;28;20289;-26
2020/12/17 09:12:57;;;;;;;4.95;1.92;;;8.60;99.90;;;;;;5011461;28;20194;-26
2020/12/17 09:15:29;;;;;;;2.83;1.40;;;8.50;99.90;;;;;;5010572;28;20199;-25
2020/12/17 09:18:10;;;;;;;4.97;1.95;;;8.50;99.90;;;;;;5012876;28;20634;-25
2020/12/17 09:20:40;;;;;;;3.30;1.90;;;8.50;99.90;;;;;;5012100;28;20203;-25
2020/12/17 09:23:11;;;;;;;4.43;1.73;;;8.50;99.90;;;;;;5006043;28;20689;-25
2020/12/17 09:25:41;;;;;;;5.38;1.75;;;8.40;99.90;;;;;;5011699;28;20211;-25
2020/12/17 09:28:21;;;;;;;4.45;1.70;;;8.30;99.90;;;;;;5012461;28;20210;-26
2020/12/17 09:30:51;;;;;;;3.20;1.73;;;8.20;99.90;;;;;;5012272;28;20250;-25
2020/12/17 09:33:21;;;;;;;5.53;1.92;;;8.20;99.90;;;;;;5011281;28;20199;-26
2020/12/17 09:35:51;;;;;;;1.98;1.60;;;8.20;99.90;;;;;;5012078;28;20214;-25
2020/12/17 09:38:23;;;;;;;5.10;2.10;;;8.10;99.90;;;;;;5012160;28;20199;-25
2020/12/17 09:40:54;;;;;;;2.88;1.42;;;8.10;99.90;;;;;;5011536;28;20222;-25
2020/12/17 09:43:25;;;;;;;3.85;1.50;;;8.00;99.90;;;;;;5012208;28;20219;-25
2020/12/17 09:45:58;;;;;;;4.00;1.67;;;8.00;99.90;;;;;;5012536;28;20226;-26
2020/12/17 09:48:29;;;;;;;2.95;1.38;;;8.10;99.90;;;;;;5012435;28;20564;-25
2020/12/17 09:51:01;;;;;;;6.03;2.05;;;8.20;99.90;;;;;;5001382;28;20196;-25
2020/12/17 09:53:34;;;;;;;4.00;1.33;;;8.20;99.90;;;;;;5011625;28;20184;-25
2020/12/17 09:56:04;;;;;;;4.45;1.80;;;8.30;99.90;;;;;;5011655;28;20210;-25
2020/12/17 09:58:38;;;;;;;5.35;1.77;;;8.30;99.90;;;;;;5012141;28;20188;-25
2020/12/17 10:01:08;;;;;;;5.25;1.75;;;8.30;99.90;;;;;;5011885;28;20200;-25
2020/12/17 10:03:37;;;;;;;3.17;1.55;;;8.20;99.90;;;;;;5008749;28;20192;-25
2020/12/17 10:06:08;;;;;;;3.40;2.05;;;8.20;99.90;;;;;;5006729;28;20230;-25
2020/12/17 10:08:39;;;;;;;4.30;1.77;;;8.30;99.90;;;;;;5010017;28;20281;-25
2020/12/17 10:11:10;;;;;;;7.43;2.53;;;8.30;99.90;;;;;;5008873;28;20227;-25
2020/12/17 10:13:40;;;;;;;3.08;2.00;;;8.40;99.90;;;;;;5010206;28;20265;-25
2020/12/17 10:16:10;;;;;;;3.38;1.95;;;8.40;99.90;;;;;;5012009;28;20203;-26
2020/12/17 10:18:40;;;;;;;4.93;2.40;;;8.50;99.90;;;;;;5010494;28;20647;-25
2020/12/17 10:21:11;;;;;;;5.20;2.15;;;8.40;99.90;;;;;;5003876;28;20211;-25
2020/12/17 10:23:43;;;;;;;3.67;1.83;;;8.40;99.90;;;;;;5011689;28;20317;-25
2020/12/17 10:26:13;;;;;;;5.75;2.15;;;8.40;99.90;;;;;;5010427;28;20223;-25
2020/12/17 10:28:43;;;;;;;5.68;1.70;;;8.40;99.90;;;;;;5007441;28;20212;-25
2020/12/17 10:31:14;;;;;;;5.90;2.30;;;8.30;99.90;;;;;;5007516;28;20267;-25
2020/12/17 10:33:45;;;;;;;4.35;2.00;;;8.20;99.90;;;;;;5009272;28;20502;-25
2020/12/17 10:36:15;;;;;;;3.53;1.40;;;8.00;99.90;;;;;;4999821;28;20605;-25
2020/12/17 10:38:46;;;;;;;3.03;2.47;;;7.80;99.90;;;;;;5005544;28;20726;-25
2020/12/17 10:41:18;;;;;;;4.30;2.00;;;7.80;99.90;;;;;;5007316;28;20542;-26
2020/12/17 10:43:48;;;;;;;5.00;1.90;;;7.80;99.90;;;;;;5006306;28;20221;-26
2020/12/17 10:46:18;;;;;;;4.90;1.52;;;7.60;99.90;;;;;;5010736;28;20246;-26
2020/12/17 10:48:48;;;;;;;9.68;2.08;;;7.60;99.90;;;;;;5003669;28;20219;-26
2020/12/17 10:51:19;;;;;;;2.42;1.50;;;7.50;99.90;;;;;;4991529;28;20742;-26
2020/12/17 10:53:50;;;;;;;4.28;2.25;;;7.40;99.90;;;;;;5000884;28;20219;-26
2020/12/17 10:56:20;;;;;;;7.25;1.52;;;7.30;99.90;;;;;;5009500;28;20516;-26
2020/12/17 10:58:51;;;;;;;4.30;1.90;;;7.40;99.90;;;;;;4996559;28;20523;-26
2020/12/17 11:01:22;;;;;;;2.97;2.15;;;7.50;99.90;;;;;;5010477;28;20188;-26
2020/12/17 11:03:52;;;;;;;8.55;2.08;;;7.50;99.90;;;;;;5004079;28;20261;-26
2020/12/17 11:06:23;;;;;;;5.72;2.10;;;7.50;99.90;;;;;;5005315;28;20505;-25
2020/12/17 11:08:54;;;;;;;6.63;2.40;;;7.50;99.90;;;;;;4998927;28;20238;-26
2020/12/17 11:11:24;;;;;;;5.13;2.05;;;7.50;99.90;;;;;;5000950;28;20231;-26
2020/12/17 11:13:54;;;;;;;8.95;2.50;;;7.50;99.90;;;;;;5006950;28;20207;-26
2020/12/17 11:16:24;;;;;;;4.85;2.30;;;7.40;99.90;;;;;;5010591;28;20195;-26
2020/12/17 11:18:54;;;;;;;4.65;1.77;;;7.50;99.90;;;;;;5009695;28;20718;-26
2020/12/17 11:21:24;;;;;;;7.10;3.08;;;7.40;99.90;;;;;;5002132;28;20199;-26
2020/12/17 11:23:55;;;;;;;4.05;2.30;;;7.40;99.90;;;;;;5010331;28;20543;-26
2020/12/17 11:26:25;;;;;;;4.75;2.15;;;7.30;99.90;;;;;;5009948;28;20223;-26
2020/12/17 11:28:58;;;;;;;4.68;2.58;;;7.30;99.90;;;;;;5009450;28;20213;-26
2020/12/17 11:31:29;;;;;;;8.63;2.50;;;7.20;99.90;;;;;;5006972;28;20207;-26
2020/12/17 11:34:00;;;;;;;6.82;2.33;;;7.20;99.90;;;;;;5007609;28;20246;-26
2020/12/17 11:36:30;;;;;;;6.20;2.35;;;7.20;99.90;;;;;;5010012;28;20191;-26
2020/12/17 11:39:01;;;;;;;3.05;1.55;;;7.20;99.90;;;;;;5010290;28;20579;-26
2020/12/17 11:41:31;;;;;;;4.32;1.52;;;7.10;99.90;;;;;;5005754;28;20191;-26
2020/12/17 11:44:01;;;;;;;4.80;1.70;;;7.20;99.90;;;;;;5002485;28;20215;-25
2020/12/17 11:46:34;;;;;;;4.43;1.67;;;7.20;99.90;;;;;;5007470;28;20713;-26
2020/12/17 11:49:04;;;;;;;8.25;2.42;;;7.20;99.90;;;;;;5009383;28;20261;-26
2020/12/17 11:51:34;;;;;;;4.70;1.95;;;7.20;99.90;;;;;;5009865;28;20665;-25
2020/12/17 11:54:06;;;;;;;5.20;1.92;;;7.10;99.90;;;;;;5009913;28;20258;-25
2020/12/17 11:56:36;;;;;;;3.10;1.60;;;7.10;99.90;;;;;;5004038;28;20199;-25
2020/12/17 11:59:06;;;;;;;6.43;2.28;;;7.10;99.90;;;;;;5010171;28;20210;-25
2020/12/17 12:01:36;;;;;;;8.07;2.50;;;7.20;99.90;;;;;;5002337;28;20200;-25
2020/12/17 12:04:06;;;;;;;7.03;2.28;;;7.10;99.90;;;;;;5006014;28;20882;-25
2020/12/17 12:06:36;;;;;;;8.23;2.15;;;7.10;99.90;;;;;;5001151;28;20235;-25
2020/12/17 12:09:08;;;;;;;7.07;2.13;;;7.10;99.90;;;;;;5002499;28;20558;-25
2020/12/17 12:11:38;;;;;;;9.93;3.55;;;7.10;99.90;;;;;;4997391;28;20270;-26
2020/12/17 12:14:12;;;;;;;7.35;2.65;;;7.20;99.90;;;;;;5007140;28;20556;-26
2020/12/17 12:16:43;;;;;;;4.18;2.40;;;7.20;99.90;;;;;;4998961;28;20183;-26
2020/12/17 12:19:13;;;;;;;5.47;2.58;;;7.20;99.90;;;;;;5002983;28;20278;-26
2020/12/17 12:21:48;;;;;;;6.15;1.83;;;7.20;99.90;;;;;;5006537;28;20257;-26
2020/12/17 12:24:19;;;;;;;5.00;2.05;;;7.20;99.90;;;;;;5009194;28;20268;-26
2020/12/17 12:26:49;;;;;;;5.05;2.22;;;7.10;99.90;;;;;;5005682;28;20342;-26
2020/12/17 12:29:19;;;;;;;10.40;2.22;;;7.20;99.90;;;;;;5008819;28;20225;-27
2020/12/17 12:31:52;;;;;;;7.28;1.98;;;7.30;99.90;;;;;;5009293;28;20266;-26
2020/12/17 12:34:22;;;;;;;5.90;1.80;;;7.30;99.90;;;;;;4998657;28;20194;-26
2020/12/17 12:36:53;;;;;;;6.00;1.95;;;7.30;99.90;;;;;;5005050;28;20686;-27
2020/12/17 12:39:24;;;;;;;12.85;3.30;;;7.40;99.90;;;;;;5008976;28;20194;-26
2020/12/17 12:41:55;;;;;;;7.45;2.00;;;7.40;99.90;;;;;;5004852;28;20325;-26
2020/12/17 12:44:25;;;;;;;6.68;2.78;;;7.40;99.90;;;;;;5009640;28;20624;-26
2020/12/17 12:46:55;;;;;;;3.63;2.20;;;7.40;99.90;;;;;;5006445;28;20227;-26
2020/12/17 12:49:25;;;;;;;9.50;2.45;;;7.50;99.90;;;;;;5004517;28;20207;-26
2020/12/17 12:51:55;;;;;;;4.05;1.52;;;7.50;99.90;;;;;;5009267;28;20195;-26
2020/12/17 12:54:26;;;;;;;6.90;2.25;;;7.50;99.90;;;;;;5009006;28;20222;-25
2020/12/17 12:56:56;;;;;;;4.47;1.90;;;7.50;99.90;;;;;;5002492;28;20679;-25
2020/12/17 12:59:26;;;;;;;5.63;2.03;;;7.50;99.90;;;;;;5006362;28;20203;-24
2020/12/17 13:01:56;;;;;;;5.18;2.10;;;7.50;99.90;;;;;;5006214;28;20204;-25
2020/12/17 13:04:26;;;;;;;10.20;2.60;;;7.50;99.90;;;;;;5004275;28;20251;-26
2020/12/17 13:06:56;;;;;;;5.35;2.08;;;7.40;99.90;;;;;;5003137;28;20242;-25
2020/12/17 13:09:27;;;;;;;5.70;2.10;;;7.40;99.90;;;;;;5008058;28;20203;-25
2020/12/17 13:11:57;;;;;;;7.40;2.35;;;7.40;99.90;;;;;;5008396;28;20504;-25
2020/12/17 13:14:30;;;;;;;11.30;2.50;;;7.30;99.90;;;;;;5007471;28;20207;-25
2020/12/17 13:17:04;;;;;;;7.93;2.75;;;7.30;99.90;;;;;;5009841;28;20199;-25
2020/12/17 13:19:34;;;;;;;10.60;2.60;;;7.30;99.90;;;;;;5010663;28;20599;-25